createdAt,value
2019-02-02T00:02:10.764Z,50.93
2019-02-02T00:08:12.370Z,50.13
2019-02-02T00:10:54.025Z,53.83
2019-02-02T00:13:36.274Z,55.90
2019-02-02T00:16:25.738Z,50.50
2019-02-02T00:18:56.003Z,48.70
2019-02-02T00:21:41.090Z,56.03
2019-02-02T00:24:25.102Z,53.93
2019-02-02T00:29:37.559Z,49.80
2019-02-02T00:32:19.130Z,53.37
2019-02-02T00:34:49.433Z,58.77
2019-02-02T00:37:19.724Z,60.77
2019-02-02T00:40:12.081Z,61.60
2019-02-02T00:43:04.238Z,56.77
2019-02-02T00:45:34.538Z,54.73
2019-02-02T00:48:06.425Z,56.03
2019-02-02T00:51:09.939Z,55.53
2019-02-02T00:53:52.608Z,60.47
2019-02-02T00:56:25.123Z,53.77
2019-02-02T00:59:06.746Z,60.40
2019-02-02T01:01:48.367Z,55.53
2019-02-02T01:04:19.118Z,61.77
2019-02-02T01:06:49.461Z,58.53
2019-02-02T01:09:31.613Z,59.10
2019-02-02T01:12:14.328Z,59.70
2019-02-02T01:14:45.105Z,57.30
2019-02-02T01:17:17.186Z,61.30
2019-02-02T01:19:58.868Z,58.47
2019-02-02T01:22:40.782Z,57.90
2019-02-02T01:25:12.134Z,56.47
2019-02-02T01:27:42.396Z,54.77
2019-02-02T01:30:32.053Z,60.10
2019-02-02T01:33:02.399Z,53.90
2019-02-02T01:35:32.675Z,60.17
2019-02-02T01:38:02.976Z,61.97
2019-02-02T01:40:53.990Z,54.97
2019-02-02T01:43:24.273Z,58.97
2019-02-02T01:45:56.187Z,60.53
2019-02-02T01:48:26.427Z,57.63
2019-02-02T01:51:10.677Z,53.30
2019-02-02T01:53:48.225Z,58.80
2019-02-02T01:56:21.015Z,54.40
2019-02-02T01:58:51.360Z,63.93
2019-02-02T02:01:36.406Z,58.80
2019-02-02T02:04:18.695Z,59.03
2019-02-02T02:06:52.009Z,62.27
2019-02-02T02:09:22.279Z,55.63
2019-02-02T02:12:04.479Z,64.57
2019-02-02T02:14:46.139Z,59.70
2019-02-02T02:17:17.262Z,61.97
2019-02-02T02:19:47.635Z,62.23
2019-02-02T02:25:08.443Z,62.17
2019-02-02T02:27:38.840Z,55.83
2019-02-02T02:30:21.795Z,69.20
2019-02-02T02:32:53.544Z,63.23
2019-02-02T02:35:23.924Z,68.93
2019-02-02T02:37:54.239Z,67.23
2019-02-02T02:40:26.415Z,58.70
2019-02-02T02:49:24.190Z,56.83
2019-02-02T02:51:54.719Z,65.33
2019-02-02T02:54:24.945Z,62.47
2019-02-02T02:57:13.120Z,73.63
2019-02-02T02:59:45.283Z,66.20
2019-02-02T03:02:17.840Z,68.30
2019-02-02T03:05:07.704Z,75.80
2019-02-02T03:07:38.087Z,68.90
2019-02-02T03:10:10.466Z,74.63
2019-02-02T03:12:52.829Z,78.67
2019-02-02T03:15:35.183Z,72.00
2019-02-02T03:18:07.096Z,71.67
2019-02-02T03:23:53.393Z,75.23
2019-02-02T03:26:23.777Z,70.97
2019-02-02T03:31:55.425Z,68.70
2019-02-02T03:34:25.700Z,77.33
2019-02-02T03:36:55.966Z,76.20
2019-02-02T03:39:38.452Z,80.80
2019-02-02T03:42:21.239Z,76.77
2019-02-02T03:44:51.499Z,78.90
2019-02-02T03:47:21.722Z,74.07
2019-02-02T03:50:11.353Z,76.93
2019-02-02T03:52:42.588Z,74.20
2019-02-02T03:55:15.810Z,77.43
2019-02-02T03:57:58.891Z,70.40
2019-02-02T04:00:41.212Z,68.10
2019-02-02T04:03:11.509Z,75.50
2019-02-02T04:05:49.068Z,68.60
2019-02-02T04:11:21.639Z,70.30
2019-02-02T04:14:06.161Z,69.50
2019-02-02T04:16:40.776Z,61.10
2019-02-02T04:19:30.175Z,64.03
2019-02-02T04:22:00.443Z,68.37
2019-02-02T04:24:33.595Z,69.30
2019-02-02T04:27:03.858Z,68.20
2019-02-02T04:29:46.025Z,63.50
2019-02-02T04:32:28.217Z,57.73
2019-02-02T04:34:58.498Z,63.77
2019-02-02T04:37:28.714Z,60.47
2019-02-02T04:40:18.707Z,62.43
2019-02-02T04:45:30.048Z,64.97
2019-02-02T04:48:01.959Z,60.90
2019-02-02T04:50:32.272Z,61.20
2019-02-02T04:53:02.483Z,63.93
2019-02-02T04:56:11.271Z,64.00
2019-02-02T04:58:41.502Z,59.93
2019-02-02T05:01:11.822Z,64.57
2019-02-02T05:03:42.050Z,61.57
2019-02-02T05:06:31.675Z,66.57
2019-02-02T05:09:02.376Z,68.47
2019-02-02T05:11:34.281Z,62.67
2019-02-02T05:14:04.546Z,67.13
2019-02-02T05:16:54.550Z,64.50
2019-02-02T05:19:25.547Z,62.40
2019-02-02T05:21:58.987Z,74.17
2019-02-02T05:24:51.173Z,73.20
2019-02-02T05:27:21.473Z,65.30
2019-02-02T05:29:51.776Z,74.47
2019-02-02T05:32:22.038Z,72.43
2019-02-02T05:35:11.665Z,72.77
2019-02-02T05:37:41.944Z,62.23
2019-02-02T05:40:15.205Z,70.73
2019-02-02T05:42:47.425Z,59.33
2019-02-02T05:48:42.341Z,72.13
2019-02-02T05:51:23.650Z,59.67
2019-02-02T05:53:53.975Z,72.40
2019-02-02T05:56:35.603Z,75.90
2019-02-02T05:59:24.752Z,67.53
2019-02-02T06:01:55.084Z,74.47
2019-02-02T06:04:37.991Z,70.60
2019-02-02T06:07:21.684Z,70.97
2019-02-02T06:09:52.097Z,70.73
2019-02-02T06:12:22.287Z,71.33
2019-02-02T06:15:04.162Z,75.47
2019-02-02T06:17:46.488Z,76.03
2019-02-02T06:20:18.856Z,80.53
2019-02-02T06:23:10.260Z,71.57
2019-02-02T06:25:40.566Z,72.17
2019-02-02T06:28:10.812Z,75.00
2019-02-02T06:31:03.015Z,76.47
2019-02-02T06:36:12.966Z,75.37
2019-02-02T06:38:55.454Z,73.50
2019-02-02T06:41:25.979Z,80.07
2019-02-02T06:44:07.489Z,74.03
2019-02-02T06:46:49.768Z,67.93
2019-02-02T06:49:20.125Z,62.10
2019-02-02T06:51:50.610Z,66.37
2019-02-02T06:54:22.643Z,66.23
2019-02-02T06:56:53.440Z,70.47
2019-02-02T06:59:23.811Z,64.90
2019-02-02T07:02:05.395Z,75.73
2019-02-02T07:04:53.006Z,63.27
2019-02-02T07:07:23.328Z,69.77
2019-02-02T07:09:55.194Z,69.23
2019-02-02T07:12:40.460Z,71.60
2019-02-02T07:15:24.019Z,72.37
2019-02-02T07:21:16.169Z,67.13
2019-02-02T07:23:46.454Z,68.80
2019-02-02T07:26:16.666Z,70.87
2019-02-02T07:28:58.885Z,71.43
2019-02-02T07:31:41.266Z,67.17
2019-02-02T07:34:11.592Z,75.67
2019-02-02T07:36:41.878Z,76.03
2019-02-02T07:39:23.338Z,70.57
2019-02-02T07:42:05.467Z,72.83
2019-02-02T07:44:35.719Z,72.87
2019-02-02T07:47:25.368Z,73.30
2019-02-02T07:49:55.677Z,68.70
2019-02-02T07:55:41.914Z,78.77
2019-02-02T07:58:31.274Z,85.50
2019-02-02T08:01:01.733Z,77.70
2019-02-02T08:03:49.358Z,83.40
2019-02-02T08:06:22.784Z,82.27
2019-02-02T08:12:14.549Z,87.53
2019-02-02T08:15:04.011Z,94.80
2019-02-02T08:17:35.258Z,84.77
2019-02-02T08:20:26.436Z,86.17
2019-02-02T08:22:59.090Z,86.07
2019-02-02T08:25:29.326Z,78.37
2019-02-02T08:28:33.861Z,89.93
2019-02-02T08:31:19.615Z,91.47
2019-02-02T08:33:52.373Z,78.73
2019-02-02T08:36:24.848Z,79.27
2019-02-02T08:41:57.080Z,84.17
2019-02-02T08:44:29.597Z,73.43
2019-02-02T08:47:18.828Z,79.23
2019-02-02T08:49:52.025Z,88.23
2019-02-02T08:52:23.959Z,88.57
2019-02-02T08:54:54.104Z,72.10
2019-02-02T08:57:24.397Z,54.77
2019-02-02T09:00:15.711Z,64.80
2019-02-02T09:02:46.221Z,58.53
2019-02-02T09:08:52.458Z,64.97
2019-02-02T09:11:25.461Z,65.97
2019-02-02T09:13:55.743Z,68.57
2019-02-02T09:16:59.053Z,68.83
2019-02-02T09:19:29.345Z,68.50
2019-02-02T09:22:01.661Z,69.47
2019-02-02T09:25:29.754Z,60.60
2019-02-02T09:28:00.480Z,66.30
2019-02-02T09:30:53.308Z,56.80
2019-02-02T09:36:26.624Z,39.60
2019-02-02T09:39:16.176Z,40.93
2019-02-02T09:41:46.587Z,42.83
2019-02-02T09:47:43.293Z,43.07
2019-02-02T09:50:34.841Z,40.93
2019-02-02T09:53:18.733Z,45.17
2019-02-02T09:56:00.479Z,44.30
2019-02-02T10:04:26.027Z,33.10
2019-02-02T10:06:58.059Z,32.03
2019-02-02T10:09:45.533Z,30.60
2019-02-02T10:18:41.706Z,34.23
2019-02-02T10:21:31.388Z,31.23
2019-02-02T10:26:56.359Z,36.50
2019-02-02T10:29:42.747Z,33.03
2019-02-02T10:35:16.394Z,35.60
2019-02-02T10:38:05.901Z,49.80
2019-02-02T10:43:51.388Z,36.23
2019-02-02T10:46:21.719Z,35.77
2019-02-02T10:52:12.934Z,39.60
2019-02-02T10:54:43.290Z,38.40
2019-02-02T10:57:16.224Z,37.13
2019-02-02T11:00:00.109Z,42.13
2019-02-02T11:02:31.041Z,38.53
2019-02-02T11:05:01.726Z,39.77
2019-02-02T11:10:38.279Z,43.17
2019-02-02T11:13:37.781Z,43.23
2019-02-02T11:28:20.203Z,42.27
2019-02-02T11:31:19.029Z,42.27
2019-02-02T11:37:32.182Z,43.07
2019-02-02T11:43:01.188Z,44.93
2019-02-02T11:45:57.980Z,41.07
2019-02-02T11:48:41.067Z,48.90
2019-02-02T11:51:38.257Z,41.40
2019-02-02T11:54:24.894Z,47.80
2019-02-02T11:56:55.553Z,39.67
2019-02-02T11:59:33.430Z,48.17
2019-02-02T12:02:31.950Z,46.93
2019-02-02T12:05:24.791Z,53.33
2019-02-02T12:07:59.579Z,59.07
2019-02-02T12:10:46.157Z,51.97
2019-02-02T12:13:39.538Z,59.30
2019-02-02T12:17:12.071Z,62.40
2019-02-02T12:25:57.504Z,54.93
2019-02-02T12:28:29.440Z,56.63
2019-02-02T12:31:11.844Z,58.23
2019-02-02T12:39:44.699Z,55.00
2019-02-02T12:42:16.573Z,54.53
2019-02-02T12:45:47.580Z,53.77
2019-02-02T12:48:38.220Z,59.67
2019-02-02T12:51:10.083Z,55.77
2019-02-02T12:53:40.706Z,59.93
2019-02-02T12:56:49.173Z,52.70
2019-02-02T12:59:57.067Z,59.60
2019-02-02T13:02:45.373Z,54.10
2019-02-02T13:05:29.435Z,53.00
2019-02-02T13:08:05.004Z,56.70
2019-02-02T13:16:27.615Z,56.03
2019-02-02T13:19:33.953Z,52.17
2019-02-02T13:28:05.753Z,55.20
2019-02-02T13:33:46.441Z,48.90
2019-02-02T13:40:46.865Z,54.67
2019-02-02T13:43:17.462Z,48.43
2019-02-02T13:45:47.679Z,59.10
2019-02-02T13:48:18.259Z,58.53
2019-02-02T13:51:19.092Z,53.93
2019-02-02T13:54:21.846Z,50.47
2019-02-02T14:00:16.071Z,46.30
2019-02-02T14:03:01.457Z,45.77
2019-02-02T14:06:08.884Z,49.63
2019-02-02T14:08:39.194Z,51.27
2019-02-02T14:11:21.553Z,57.90
2019-02-02T14:25:12.676Z,60.27
2019-02-02T14:27:57.366Z,60.83
2019-02-02T14:30:28.246Z,64.90
2019-02-02T14:51:17.007Z,61.00
2019-02-02T14:54:07.041Z,64.57
2019-02-02T14:59:21.288Z,54.47
2019-02-02T15:01:53.286Z,59.80
2019-02-02T15:07:51.858Z,59.73
2019-02-02T15:10:23.335Z,58.03
2019-02-02T15:13:15.977Z,62.53
2019-02-02T15:18:56.161Z,60.60
2019-02-02T15:34:42.668Z,65.13
2019-02-02T15:37:32.615Z,67.80
2019-02-02T15:40:34.070Z,62.73
2019-02-02T15:43:27.231Z,63.90
2019-02-02T15:46:18.568Z,65.00
2019-02-02T15:49:26.853Z,64.83
2019-02-02T15:54:41.057Z,77.83
2019-02-02T15:57:22.357Z,69.23
2019-02-02T16:00:06.417Z,71.63
2019-02-02T16:06:37.539Z,75.53
2019-02-02T16:12:29.768Z,71.53
2019-02-02T16:15:19.320Z,67.87
2019-02-02T16:17:49.726Z,72.90
2019-02-02T16:20:27.025Z,70.70
2019-02-02T16:25:58.108Z,73.53
2019-02-02T16:28:39.845Z,70.63
2019-02-02T16:31:10.195Z,68.40
2019-02-02T16:33:41.425Z,71.43
2019-02-02T16:36:44.375Z,64.57
2019-02-02T16:39:16.999Z,71.73
2019-02-02T16:41:47.268Z,69.57
2019-02-02T16:44:33.495Z,73.03
2019-02-02T16:47:03.815Z,74.83
2019-02-02T16:52:26.226Z,67.77
2019-02-02T16:54:58.795Z,70.40
2019-02-02T16:57:29.085Z,70.80
2019-02-02T17:03:11.922Z,68.93
2019-02-02T17:08:47.079Z,76.17
2019-02-02T17:14:22.305Z,69.80
2019-02-02T17:16:54.429Z,66.57
2019-02-02T17:19:45.132Z,69.40
2019-02-02T17:28:30.443Z,67.13
2019-02-02T17:34:26.954Z,67.67
2019-02-02T17:37:18.267Z,70.87
2019-02-02T17:39:48.634Z,74.00
2019-02-02T17:45:33.588Z,69.53
2019-02-02T17:48:07.564Z,72.97
2019-02-02T17:51:09.112Z,67.93
2019-02-02T17:53:39.587Z,65.27
2019-02-02T17:56:11.904Z,73.93
2019-02-02T17:58:53.643Z,75.30
2019-02-02T18:01:36.999Z,73.33
2019-02-02T18:07:30.385Z,63.73
2019-02-02T18:10:02.723Z,61.67
2019-02-02T18:13:06.413Z,70.53
2019-02-02T18:15:40.128Z,66.90
2019-02-02T18:18:15.073Z,70.47
2019-02-02T18:21:22.732Z,65.30
2019-02-02T18:24:12.826Z,68.43
2019-02-02T18:26:43.098Z,67.87
2019-02-02T18:29:28.259Z,65.87
2019-02-02T18:35:01.358Z,58.60
2019-02-02T18:38:11.760Z,64.27
2019-02-02T18:43:48.887Z,63.17
2019-02-02T18:46:48.929Z,55.93
2019-02-02T18:49:19.217Z,54.93
2019-02-02T18:52:06.897Z,68.17
2019-02-02T18:54:39.095Z,82.90
2019-02-02T19:00:33.642Z,74.67
2019-02-02T19:09:51.762Z,60.23
2019-02-02T19:12:22.370Z,70.40
2019-02-02T19:14:52.928Z,59.03
2019-02-02T19:17:36.991Z,76.43
2019-02-02T19:20:27.441Z,75.13
2019-02-02T19:23:24.877Z,70.37
2019-02-02T19:26:14.095Z,64.27
2019-02-02T19:31:21.643Z,59.53
2019-02-02T19:34:06.624Z,51.70
2019-02-02T19:39:41.150Z,63.50
2019-02-02T19:42:23.492Z,72.13
2019-02-02T19:45:31.965Z,64.97
2019-02-02T19:48:17.175Z,58.37
2019-02-02T19:50:56.475Z,58.13
2019-02-02T19:53:31.857Z,59.57
2019-02-02T19:59:41.307Z,55.63
2019-02-02T20:11:22.109Z,64.10
2019-02-02T20:17:15.102Z,61.30
2019-02-02T20:19:47.234Z,47.43
2019-02-02T20:28:27.996Z,57.10
2019-02-02T20:33:52.494Z,64.77
2019-02-02T20:36:41.905Z,57.50
2019-02-02T20:42:50.045Z,59.30
2019-02-02T20:48:35.100Z,60.13
2019-02-02T20:54:04.270Z,53.23
2019-02-02T20:56:36.257Z,59.10
2019-02-02T20:59:27.994Z,56.60
2019-02-02T21:02:11.220Z,55.97
2019-02-02T21:05:16.047Z,53.93
2019-02-02T21:10:30.028Z,56.40
2019-02-02T21:13:12.400Z,61.83
2019-02-02T21:21:52.420Z,51.77
2019-02-02T21:24:41.874Z,76.97
2019-02-02T21:33:27.238Z,61.50
2019-02-02T21:39:01.274Z,71.10
2019-02-02T21:42:15.345Z,71.00
2019-02-02T21:44:48.056Z,75.20
2019-02-02T21:47:39.041Z,83.90
2019-02-02T21:50:31.981Z,82.27
2019-02-02T21:58:52.993Z,88.63
2019-02-02T22:04:30.515Z,75.33
2019-02-02T22:07:01.225Z,81.27
2019-02-02T22:09:38.553Z,90.10
2019-02-02T22:15:53.847Z,80.47
2019-02-02T22:18:34.709Z,84.90
2019-02-02T22:21:27.148Z,71.83
2019-02-02T22:24:08.464Z,71.77
2019-02-02T22:26:41.653Z,75.97
2019-02-02T22:29:24.022Z,75.40
2019-02-02T22:32:07.248Z,77.67
2019-02-02T22:34:39.982Z,78.27
2019-02-02T22:37:10.269Z,87.90
2019-02-02T22:39:54.947Z,71.17
2019-02-02T22:42:43.033Z,100.63
2019-02-02T22:45:20.505Z,71.97
2019-02-02T22:48:02.939Z,80.17
2019-02-02T22:50:35.949Z,73.33
2019-02-02T22:53:06.224Z,71.30
2019-02-02T22:55:50.769Z,72.97
2019-02-02T22:58:33.427Z,78.10
2019-02-02T23:01:57.537Z,87.13
2019-02-02T23:04:25.134Z,89.90
2019-02-02T23:07:45.978Z,76.73
2019-02-02T23:11:07.131Z,71.00
2019-02-02T23:14:08.617Z,71.63
2019-02-02T23:19:39.786Z,84.13
2019-02-02T23:22:11.714Z,85.93
2019-02-02T23:24:53.400Z,87.10
2019-02-02T23:31:05.953Z,94.43
2019-02-02T23:33:42.155Z,88.10
2019-02-02T23:36:12.507Z,94.77
2019-02-02T23:38:56.314Z,95.57
2019-02-02T23:41:26.591Z,90.03
2019-02-02T23:47:18.267Z,103.17
2019-02-02T23:49:51.274Z,241.13
2019-02-02T23:52:21.513Z,239.50
2019-02-02T23:55:07.298Z,340.37
2019-02-02T23:57:38.349Z,288.30
